Santa Coloma de Gramanet, Spain
Current Conditions -  °F | °C
As of 12:30 PM on Saturday 20 Dec 2014 (Local Time) from LELL Reporting Station
Few Clouds Few Clouds  
Wind Chill: 57°   Ceiling: Unl
Heat Index: 57°   Visibility: 6mi
Dew Point: 50°   Wind: 5mph
Humidity: 77%   Direction: 280°W
Pressure: 30.45"   Gusts: NA
Location:  41.45°N, 2.22°E
Report Text: LELL 201130Z 28004KT 250V320 9999 FEW030 14/10 Q1031
Loading
Personal Weather Stations






























Interactive Weather Map New forecast layout! Learn more

10-Day Weather Forecast

Advertisements
Track Severe Weather on mobile